مكة, السعودية

02:14 AM AST on êèنêè 31, 2014 (GMT +0300)
King Abdulaziz International (OEJN) Elev 49 ft | 21.70 °N, 39.18 °E | Change Station

Current weather conditions updated 14 minutes ago

Clear
صافية
86 °F
Feels Like 93 °F
N
0
ريح متغير ريح from شمال

Today is forecast to be Cooler than yesterday.

هذا اليوم
High -- | Low -- °F
--% Chance of Precip.
Yesterday
High -- | Low -- °F
Precip. -- في
5:53 AM 7:00 PM
الهلال الأول, 14% visible
الضغط 29.62 في
وضوح الرؤية -9999.0 أميال
سحابات
مؤشر الحرارة 93 °F
نقطة الندى 73 °F
الرطوبة 66%
Rainfall 0.00 في
عمق الثلج Not available.
الأشعة فوق البنفسجية Not available.
Pollen Not available.
جودة الهواء Not available.
Flu Activity Not available.
METAR OEJN 302300Z 00000KT CAVOK 30/23 Q1003 NOSIG

More Conditions Fewer Conditions

الضغط 29.62 في
وضوح الرؤية -9999.0 أميال
سحابات
مؤشر الحرارة 93 °F
نقطة الندى 73 °F
الرطوبة 66%
Rainfall 0.00 في
عمق الثلج Not available.
الأشعة فوق البنفسجية Not available.
Pollen Not available.
جودة الهواء Not available.
Flu Activity Not available.
METAR OEJN 302300Z 00000KT CAVOK 30/23 Q1003 NOSIG

More Conditions Fewer Conditions

10-Day Weather Forecast

Almanac

علم الفلك

Jul. 31, 2014 Rise Set
Actual Time 5:53 AM AST 7:00 PM AST
Civil Twilight 5:29 AM AST 7:24 PM AST
Nautical Twilight 5:01 AM AST 7:52 PM AST
Astronomical Twilight 4:32 AM AST 8:21 PM AST
قمر 9:24 AM AST (7/31) 9:41 PM AST (7/31)
Length Of Visible Light 13h 54m
طول الیوم
13h 07m
Tomorrow will be 0m 53s shorter.
الهلال الأول, 14% of the Moon is Illuminated
Jul 30
الهلال الأول
Aug 3
الربع الاول
Aug 10
بدر
Aug 17
الربع الآخر
Aug 25
New

Yesterday's Extremes

Country Highs Country Lows

Community

WunderPhotos

Upload Photos

1,739,248 photos uploaded!

Nearby

جودة الهواء

Not available.

عمق الثلج

Not available.

Earthquake Activity

City Distance Mag. Time & Date
No recent earthquake activity has been reported nearby.
Minimum magnitude displayed is 2.5.

Coastal Water Temperatures

مكان درجات الحرارة
No Stations Reporting

Nearby Weather Stations

There are no personal weather stations in this area.